createdAt,value
2023-02-23T00:02:04.551Z,4.19
2023-02-23T00:04:31.483Z,4.13
2023-02-23T00:06:58.562Z,4.09
2023-02-23T00:09:25.403Z,4.05
2023-02-23T00:11:56.150Z,4.02
2023-02-23T00:14:27.527Z,3.98
2023-02-23T00:16:55.471Z,3.96
2023-02-23T00:19:24.855Z,3.97
2023-02-23T00:21:52.618Z,3.96
2023-02-23T00:24:19.951Z,3.96
2023-02-23T00:26:48.109Z,3.96
2023-02-23T00:29:17.985Z,3.96
2023-02-23T00:31:46.386Z,3.97
2023-02-23T00:34:15.395Z,3.96
2023-02-23T00:36:43.030Z,3.97
2023-02-23T00:39:38.058Z,3.99
2023-02-23T00:42:06.695Z,4.00
2023-02-23T00:44:34.894Z,4.00
2023-02-23T00:47:02.160Z,4.00
2023-02-23T00:49:53.896Z,4.00
2023-02-23T00:52:20.637Z,3.98
2023-02-23T00:55:08.396Z,3.98
2023-02-23T00:57:35.440Z,3.97
2023-02-23T01:00:17.398Z,3.97
2023-02-23T01:02:44.559Z,3.98
2023-02-23T01:05:11.936Z,3.98
2023-02-23T01:07:40.092Z,3.97
2023-02-23T01:10:19.638Z,3.96
2023-02-23T01:12:48.860Z,3.96
2023-02-23T01:15:16.085Z,3.93
2023-02-23T01:17:43.222Z,3.89
2023-02-23T01:20:19.580Z,3.87
2023-02-23T01:22:48.455Z,3.83
2023-02-23T01:25:19.074Z,3.80
2023-02-23T01:27:46.273Z,3.77
2023-02-23T01:30:15.880Z,3.76
2023-02-23T01:32:42.705Z,3.76
2023-02-23T01:35:10.985Z,3.72
2023-02-23T01:37:41.825Z,3.72
2023-02-23T01:40:39.187Z,3.68
2023-02-23T01:43:26.102Z,3.66
2023-02-23T01:45:55.722Z,3.62
2023-02-23T01:48:32.624Z,3.59
2023-02-23T01:51:15.275Z,3.57
2023-02-23T01:53:48.452Z,3.54
2023-02-23T01:56:21.553Z,3.53
2023-02-23T01:58:54.787Z,3.50
2023-02-23T02:01:23.380Z,3.52
2023-02-23T02:03:56.807Z,3.51
2023-02-23T02:06:28.905Z,3.50
2023-02-23T02:09:01.208Z,3.48
2023-02-23T02:11:37.150Z,3.49
2023-02-23T02:14:13.204Z,3.46
2023-02-23T02:16:54.716Z,3.46
2023-02-23T02:19:47.167Z,3.45
2023-02-23T02:22:14.462Z,3.45
2023-02-23T02:25:13.589Z,3.43
2023-02-23T02:27:59.591Z,3.36
2023-02-23T02:30:52.912Z,3.33
2023-02-23T02:33:48.368Z,3.30
2023-02-23T02:36:43.056Z,3.27
2023-02-23T02:39:35.186Z,3.24
2023-02-23T02:42:20.601Z,3.21
2023-02-23T02:45:13.955Z,3.17
2023-02-23T02:47:49.006Z,3.13
2023-02-23T02:50:31.555Z,3.08
2023-02-23T02:53:07.291Z,3.07
2023-02-23T02:55:37.772Z,3.02
2023-02-23T02:58:08.056Z,3.01
2023-02-23T03:01:08.993Z,2.98
2023-02-23T03:03:57.290Z,2.97
2023-02-23T03:06:49.907Z,2.96
2023-02-23T03:09:53.947Z,2.95
2023-02-23T03:12:54.052Z,2.90
2023-02-23T03:15:59.532Z,2.83
2023-02-23T03:18:56.872Z,2.82
2023-02-23T03:21:48.845Z,2.79
2023-02-23T03:24:48.514Z,2.80
2023-02-23T03:27:54.490Z,2.78
2023-02-23T03:30:55.757Z,2.78
2023-02-23T03:33:53.328Z,2.78
2023-02-23T03:36:46.535Z,2.75
2023-02-23T03:39:38.771Z,2.72
2023-02-23T03:42:30.420Z,2.68
2023-02-23T03:45:18.042Z,2.66
2023-02-23T03:48:04.497Z,2.62
2023-02-23T03:51:01.686Z,2.61
2023-02-23T03:53:56.626Z,2.60
2023-02-23T03:56:45.789Z,2.58
2023-02-23T03:59:34.165Z,2.58
2023-02-23T04:02:21.120Z,2.57
2023-02-23T04:05:07.818Z,2.56
2023-02-23T04:07:53.363Z,2.56
2023-02-23T04:10:41.031Z,2.54
2023-02-23T04:13:17.314Z,2.55
2023-02-23T04:16:08.976Z,2.54
2023-02-23T04:18:38.876Z,2.53
2023-02-23T04:21:08.591Z,2.50
2023-02-23T04:23:38.025Z,2.46
2023-02-23T04:26:05.265Z,2.44
2023-02-23T04:28:31.964Z,2.42
2023-02-23T04:30:58.677Z,2.41
2023-02-23T04:33:25.680Z,2.39
2023-02-23T04:35:54.167Z,2.36
2023-02-23T04:38:21.973Z,2.34
2023-02-23T04:40:49.019Z,2.33
2023-02-23T04:43:18.768Z,2.28
2023-02-23T04:45:45.710Z,2.27
2023-02-23T04:48:12.477Z,2.25
2023-02-23T04:50:39.761Z,2.22
2023-02-23T04:53:06.626Z,2.22
2023-02-23T04:55:33.614Z,2.17
2023-02-23T04:58:01.896Z,2.16
2023-02-23T05:00:29.712Z,2.16
2023-02-23T05:02:57.629Z,2.19
2023-02-23T05:05:24.671Z,2.17
2023-02-23T05:07:51.673Z,2.13
2023-02-23T05:10:18.408Z,2.13
2023-02-23T05:12:45.146Z,2.12
2023-02-23T05:15:12.020Z,2.12
2023-02-23T05:17:42.090Z,2.11
2023-02-23T05:20:13.205Z,2.11
2023-02-23T05:22:40.084Z,2.12
2023-02-23T05:25:08.836Z,2.13
2023-02-23T05:27:36.890Z,2.13
2023-02-23T05:30:04.893Z,2.13
2023-02-23T05:32:31.701Z,2.13
2023-02-23T05:34:58.540Z,2.08
2023-02-23T05:37:25.279Z,2.05
2023-02-23T05:39:51.992Z,2.05
2023-02-23T05:42:19.006Z,2.03
2023-02-23T05:44:45.778Z,2.00
2023-02-23T05:47:12.554Z,2.01
2023-02-23T05:49:39.284Z,1.99
2023-02-23T05:52:06.141Z,1.98
2023-02-23T05:54:32.838Z,1.98
2023-02-23T05:57:01.712Z,1.95
2023-02-23T05:59:28.738Z,1.96
2023-02-23T06:01:55.537Z,1.97
2023-02-23T06:04:23.416Z,1.98
2023-02-23T06:06:50.489Z,1.97
2023-02-23T06:09:17.300Z,1.96
2023-02-23T06:11:45.211Z,1.95
2023-02-23T06:14:12.161Z,1.93
2023-02-23T06:16:39.453Z,1.93
2023-02-23T06:19:06.426Z,1.92
2023-02-23T06:21:33.522Z,1.91
2023-02-23T06:24:01.087Z,1.89
2023-02-23T06:26:29.151Z,1.85
2023-02-23T06:28:56.361Z,1.85
2023-02-23T06:31:23.339Z,1.87
2023-02-23T06:33:51.016Z,1.85
2023-02-23T06:36:18.038Z,1.84
2023-02-23T06:38:45.180Z,1.85
2023-02-23T06:41:12.442Z,1.85
2023-02-23T06:43:39.117Z,1.82
2023-02-23T06:46:06.366Z,1.81
2023-02-23T06:48:33.213Z,1.77
2023-02-23T06:51:00.207Z,1.76
2023-02-23T06:53:27.292Z,1.74
2023-02-23T06:55:53.973Z,1.72
2023-02-23T06:58:20.731Z,1.71
2023-02-23T07:00:47.470Z,1.71
2023-02-23T07:03:14.380Z,1.71
2023-02-23T07:05:41.120Z,1.70
2023-02-23T07:08:08.065Z,1.71
2023-02-23T07:10:35.228Z,1.73
2023-02-23T07:13:02.098Z,1.75
2023-02-23T07:15:29.135Z,1.74
2023-02-23T07:17:56.910Z,1.75
2023-02-23T07:20:23.677Z,1.73
2023-02-23T07:22:51.024Z,1.75
2023-02-23T07:25:18.286Z,1.74
2023-02-23T07:27:45.429Z,1.74
2023-02-23T07:30:12.846Z,1.75
2023-02-23T07:32:39.991Z,1.74
2023-02-23T07:35:07.924Z,1.74
2023-02-23T07:37:34.921Z,1.76
2023-02-23T07:40:01.823Z,1.78
2023-02-23T07:42:28.861Z,1.78
2023-02-23T07:44:56.284Z,1.80
2023-02-23T07:47:30.317Z,1.81
2023-02-23T07:50:02.496Z,1.82
2023-02-23T07:52:29.773Z,1.85
2023-02-23T07:54:56.587Z,1.87
2023-02-23T07:57:24.988Z,1.89
2023-02-23T07:59:52.031Z,1.90
2023-02-23T08:02:19.007Z,1.91
2023-02-23T08:04:45.861Z,1.93
2023-02-23T08:07:12.577Z,1.95
2023-02-23T08:09:39.495Z,1.97
2023-02-23T08:12:06.614Z,1.99
2023-02-23T08:14:33.412Z,2.00
2023-02-23T08:17:01.745Z,2.01
2023-02-23T08:19:28.733Z,2.03
2023-02-23T08:21:56.562Z,2.09
2023-02-23T08:24:23.523Z,2.17
2023-02-23T08:26:50.488Z,2.24
2023-02-23T08:29:17.605Z,2.25
2023-02-23T08:31:44.718Z,2.29
2023-02-23T08:34:11.669Z,2.27
2023-02-23T08:36:39.300Z,2.30
2023-02-23T08:39:07.564Z,2.34
2023-02-23T08:41:34.923Z,2.38
2023-02-23T08:44:01.645Z,2.40
2023-02-23T08:46:28.391Z,2.44
2023-02-23T08:48:56.669Z,2.49
2023-02-23T08:51:23.717Z,2.53
2023-02-23T08:53:50.531Z,2.56
2023-02-23T08:56:17.341Z,2.60
2023-02-23T08:58:44.131Z,2.64
2023-02-23T09:01:19.346Z,2.66
2023-02-23T09:03:46.322Z,2.70
2023-02-23T09:06:18.141Z,2.74
2023-02-23T09:08:45.424Z,2.78
2023-02-23T09:11:12.138Z,2.82
2023-02-23T09:13:38.902Z,2.88
2023-02-23T09:16:07.824Z,2.93
2023-02-23T09:18:35.586Z,2.98
2023-02-23T09:21:08.585Z,3.05
2023-02-23T09:23:36.064Z,3.10
2023-02-23T09:26:06.652Z,3.17
2023-02-23T09:28:34.946Z,3.23
2023-02-23T09:31:10.023Z,3.28
2023-02-23T09:33:37.165Z,3.33
2023-02-23T09:36:18.212Z,3.40
2023-02-23T09:38:47.027Z,3.47
2023-02-23T09:41:57.589Z,3.55
2023-02-23T09:45:05.749Z,3.63
2023-02-23T09:48:04.330Z,3.72
2023-02-23T09:50:34.997Z,3.77
2023-02-23T09:53:04.975Z,3.84
2023-02-23T09:55:32.541Z,3.89
2023-02-23T09:58:08.543Z,3.95
2023-02-23T10:00:43.659Z,4.00
2023-02-23T10:03:19.645Z,4.07
2023-02-23T10:05:53.568Z,4.13
2023-02-23T10:08:23.189Z,4.22
2023-02-23T10:11:05.179Z,4.29
2023-02-23T10:13:46.587Z,4.37
2023-02-23T10:16:54.638Z,4.46
2023-02-23T10:19:43.056Z,4.52
2023-02-23T10:22:12.712Z,4.58
2023-02-23T10:24:43.385Z,4.66
2023-02-23T10:27:15.956Z,4.73
2023-02-23T10:29:47.843Z,4.77
2023-02-23T10:32:22.512Z,4.82
2023-02-23T10:34:53.922Z,4.85
2023-02-23T10:37:21.082Z,4.88
2023-02-23T10:39:49.978Z,4.92
2023-02-23T10:42:23.199Z,4.97
2023-02-23T10:44:50.618Z,5.02
2023-02-23T10:47:25.216Z,5.09
2023-02-23T10:49:56.814Z,5.16
2023-02-23T10:52:52.070Z,5.25
2023-02-23T10:55:25.407Z,5.32
2023-02-23T10:58:04.126Z,5.38
2023-02-23T11:00:34.195Z,5.44
2023-02-23T11:03:03.444Z,5.51
2023-02-23T11:05:58.429Z,5.59
2023-02-23T11:08:34.780Z,5.66
2023-02-23T11:11:19.429Z,5.72
2023-02-23T11:13:49.775Z,5.77
2023-02-23T11:16:20.277Z,5.82
2023-02-23T11:19:00.839Z,5.85
2023-02-23T11:21:38.454Z,5.88
2023-02-23T11:24:26.540Z,5.91
2023-02-23T11:26:58.039Z,5.95
2023-02-23T11:29:35.412Z,6.00
2023-02-23T11:32:26.716Z,6.04
2023-02-23T11:35:11.851Z,6.07
2023-02-23T11:37:38.670Z,6.09
2023-02-23T11:40:39.960Z,6.16
2023-02-23T11:43:07.451Z,6.20
2023-02-23T11:45:47.352Z,6.23
2023-02-23T11:48:23.889Z,6.26
2023-02-23T11:50:50.736Z,6.30
2023-02-23T11:53:30.147Z,6.30
2023-02-23T11:56:02.778Z,6.29
2023-02-23T11:58:49.853Z,6.31
2023-02-23T12:01:24.358Z,6.38
2023-02-23T12:03:56.657Z,6.42
2023-02-23T12:06:36.853Z,6.47
2023-02-23T12:09:29.571Z,6.50
2023-02-23T12:12:15.552Z,6.53
2023-02-23T12:15:00.216Z,6.59
2023-02-23T12:17:32.942Z,6.64
2023-02-23T12:20:25.611Z,6.69
2023-02-23T12:22:54.840Z,6.71
2023-02-23T12:25:40.809Z,6.80
2023-02-23T12:28:38.956Z,6.85
2023-02-23T12:31:25.969Z,6.89
2023-02-23T12:34:10.763Z,6.95
2023-02-23T12:36:43.701Z,7.05
2023-02-23T12:39:22.493Z,7.11
2023-02-23T12:42:00.810Z,7.20
2023-02-23T12:44:52.945Z,7.31
2023-02-23T12:47:27.291Z,7.43
2023-02-23T12:50:07.437Z,7.48
2023-02-23T12:52:38.797Z,7.55
2023-02-23T12:55:11.916Z,7.63
2023-02-23T12:57:52.205Z,7.71
2023-02-23T13:00:46.008Z,7.77
2023-02-23T13:03:41.688Z,7.84
2023-02-23T13:06:22.914Z,7.87
2023-02-23T13:08:59.360Z,7.90
2023-02-23T13:11:51.209Z,7.99
2023-02-23T13:14:35.638Z,8.08
2023-02-23T13:17:37.992Z,8.13
2023-02-23T13:20:22.667Z,8.18
2023-02-23T13:22:51.616Z,8.31
2023-02-23T13:25:50.774Z,8.45
2023-02-23T13:28:39.663Z,8.60
2023-02-23T13:31:20.575Z,8.71
2023-02-23T13:33:49.617Z,8.76
2023-02-23T13:36:19.683Z,8.84
2023-02-23T13:39:17.973Z,8.91
2023-02-23T13:42:00.103Z,9.01
2023-02-23T13:44:49.358Z,9.04
2023-02-23T13:47:32.824Z,9.12
2023-02-23T13:50:22.739Z,9.19
2023-02-23T13:52:49.994Z,9.23
2023-02-23T13:55:32.691Z,9.31
2023-02-23T13:58:23.263Z,9.36
2023-02-23T14:01:04.449Z,9.40
2023-02-23T14:03:37.322Z,9.51
2023-02-23T14:06:04.570Z,9.53
2023-02-23T14:08:39.105Z,9.57
2023-02-23T14:11:06.820Z,9.66
2023-02-23T14:13:41.402Z,9.76
2023-02-23T14:16:15.657Z,9.78
2023-02-23T14:19:08.204Z,9.80
2023-02-23T14:21:37.171Z,9.72
2023-02-23T14:24:19.535Z,9.72
2023-02-23T14:27:04.726Z,9.69
2023-02-23T14:29:40.249Z,9.68
2023-02-23T14:32:13.282Z,9.67
2023-02-23T14:35:01.096Z,9.66
2023-02-23T14:37:34.735Z,9.62
2023-02-23T14:40:09.113Z,9.61
2023-02-23T14:42:39.155Z,9.63
2023-02-23T14:45:29.189Z,9.69
2023-02-23T14:48:01.585Z,9.75
2023-02-23T14:50:34.297Z,9.81
2023-02-23T14:53:04.267Z,9.82
2023-02-23T14:55:35.538Z,9.76
2023-02-23T14:58:21.496Z,9.78
2023-02-23T15:00:49.164Z,9.80
2023-02-23T15:03:15.915Z,9.82
2023-02-23T15:05:44.558Z,9.82
2023-02-23T15:08:18.499Z,9.85
2023-02-23T15:10:48.049Z,9.90
2023-02-23T15:13:29.238Z,9.89
2023-02-23T15:15:58.570Z,9.87
2023-02-23T15:18:34.734Z,9.83
2023-02-23T15:21:08.308Z,9.74
2023-02-23T15:23:37.870Z,9.70
2023-02-23T15:26:32.069Z,9.66
2023-02-23T15:29:11.370Z,9.59
2023-02-23T15:31:41.280Z,9.54
2023-02-23T15:34:12.136Z,9.50
2023-02-23T15:36:41.310Z,9.45
2023-02-23T15:39:16.653Z,9.39
2023-02-23T15:41:48.476Z,9.33
2023-02-23T15:44:22.891Z,9.25
2023-02-23T15:46:56.098Z,9.20
2023-02-23T15:49:28.975Z,9.14
2023-02-23T15:52:19.502Z,9.12
2023-02-23T15:55:00.177Z,9.09
2023-02-23T15:57:34.057Z,9.07
2023-02-23T16:00:10.132Z,9.07
2023-02-23T16:02:37.824Z,9.06
2023-02-23T16:05:25.723Z,9.02
2023-02-23T16:08:05.462Z,8.99
2023-02-23T16:10:47.144Z,8.97
2023-02-23T16:13:19.825Z,8.94
2023-02-23T16:15:50.139Z,8.90
2023-02-23T16:18:21.119Z,8.92
2023-02-23T16:20:56.234Z,8.90
2023-02-23T16:23:37.261Z,8.88
2023-02-23T16:26:12.178Z,8.83
2023-02-23T16:28:45.034Z,8.82
2023-02-23T16:31:14.206Z,8.79
2023-02-23T16:33:45.004Z,8.78
2023-02-23T16:36:12.380Z,8.76
2023-02-23T16:39:04.263Z,8.72
2023-02-23T16:41:33.105Z,8.68
2023-02-23T16:44:05.276Z,8.64
2023-02-23T16:46:53.534Z,8.62
2023-02-23T16:49:23.647Z,8.59
2023-02-23T16:51:51.330Z,8.54
2023-02-23T16:54:18.211Z,8.49
2023-02-23T16:56:47.412Z,8.45
2023-02-23T16:59:17.707Z,8.41
2023-02-23T17:01:49.966Z,8.38
2023-02-23T17:04:18.305Z,8.32
2023-02-23T17:06:47.329Z,8.28
2023-02-23T17:09:14.462Z,8.23
2023-02-23T17:11:44.014Z,8.17
2023-02-23T17:14:24.645Z,8.13
2023-02-23T17:16:52.060Z,8.09
2023-02-23T17:19:18.937Z,8.05
2023-02-23T17:21:46.979Z,8.02
2023-02-23T17:24:15.843Z,7.98
2023-02-23T17:26:44.003Z,7.96
2023-02-23T17:29:10.759Z,7.94
2023-02-23T17:31:38.417Z,7.91
2023-02-23T17:34:06.262Z,7.90
2023-02-23T17:36:32.976Z,7.89
2023-02-23T17:38:59.916Z,7.85
2023-02-23T17:41:27.913Z,7.82
2023-02-23T17:43:54.997Z,7.79
2023-02-23T17:46:24.407Z,7.77
2023-02-23T17:48:52.386Z,7.73
2023-02-23T17:51:21.531Z,7.71
2023-02-23T17:53:48.484Z,7.71
2023-02-23T17:56:16.413Z,7.68
2023-02-23T17:58:43.094Z,7.64
2023-02-23T18:01:10.016Z,7.60
2023-02-23T18:03:37.355Z,7.61
2023-02-23T18:06:07.848Z,7.59
2023-02-23T18:08:39.256Z,7.54
2023-02-23T18:11:06.580Z,7.50
2023-02-23T18:13:34.596Z,7.48
2023-02-23T18:16:09.619Z,7.44
2023-02-23T18:18:42.366Z,7.42
2023-02-23T18:21:19.108Z,7.40
2023-02-23T18:23:46.523Z,7.38
2023-02-23T18:26:17.357Z,7.36
2023-02-23T18:28:45.921Z,7.35
2023-02-23T18:31:15.833Z,7.33
2023-02-23T18:33:44.853Z,7.31
2023-02-23T18:36:35.502Z,7.31
2023-02-23T18:39:06.080Z,7.30
2023-02-23T18:41:33.593Z,7.27
2023-02-23T18:44:06.457Z,7.27
2023-02-23T18:46:33.846Z,7.26
2023-02-23T18:49:01.009Z,7.26
2023-02-23T18:51:29.898Z,7.25
2023-02-23T18:53:57.190Z,7.24
2023-02-23T18:56:27.281Z,7.25
2023-02-23T18:58:57.410Z,7.23
2023-02-23T19:01:28.221Z,7.22
2023-02-23T19:03:57.303Z,7.21
2023-02-23T19:06:25.314Z,7.19
2023-02-23T19:08:55.497Z,7.19
2023-02-23T19:11:29.880Z,7.17
2023-02-23T19:14:02.237Z,7.15
2023-02-23T19:16:31.480Z,7.13
2023-02-23T19:18:59.674Z,7.11
2023-02-23T19:21:27.885Z,7.09
2023-02-23T19:24:00.002Z,7.05
2023-02-23T19:26:29.576Z,7.02
2023-02-23T19:28:58.253Z,6.99
2023-02-23T19:31:26.308Z,6.98
2023-02-23T19:33:56.450Z,6.97
2023-02-23T19:36:29.866Z,6.96
2023-02-23T19:39:06.337Z,6.95
2023-02-23T19:41:34.138Z,6.94
2023-02-23T19:44:05.576Z,6.92
2023-02-23T19:46:32.547Z,6.93
2023-02-23T19:49:00.281Z,6.92
2023-02-23T19:51:28.160Z,6.94
2023-02-23T19:54:02.206Z,6.95
2023-02-23T19:56:29.389Z,6.94
2023-02-23T19:58:57.503Z,6.95
2023-02-23T20:01:27.851Z,6.95
2023-02-23T20:03:55.822Z,6.96
2023-02-23T20:06:25.593Z,6.94
2023-02-23T20:08:52.745Z,6.95
2023-02-23T20:11:20.342Z,6.95
2023-02-23T20:13:47.384Z,6.96
2023-02-23T20:16:17.480Z,6.97
2023-02-23T20:18:44.926Z,6.96
2023-02-23T20:21:18.235Z,6.95
2023-02-23T20:23:47.571Z,6.97
2023-02-23T20:26:18.102Z,6.96
2023-02-23T20:28:44.987Z,6.97
2023-02-23T20:31:26.231Z,6.98
2023-02-23T20:33:56.159Z,6.98
2023-02-23T20:36:24.771Z,6.97
2023-02-23T20:38:52.507Z,6.98
2023-02-23T20:41:20.229Z,6.98
2023-02-23T20:43:47.406Z,6.97
2023-02-23T20:46:16.433Z,6.97
2023-02-23T20:48:43.932Z,6.96
2023-02-23T20:51:18.016Z,6.96
2023-02-23T20:53:46.952Z,6.95
2023-02-23T20:56:16.870Z,6.95
2023-02-23T20:58:44.563Z,6.95
2023-02-23T21:01:16.210Z,6.95
2023-02-23T21:03:46.421Z,6.96
2023-02-23T21:06:16.384Z,6.97
2023-02-23T21:08:46.904Z,6.95
2023-02-23T21:11:13.648Z,6.94
2023-02-23T21:13:40.892Z,6.91
2023-02-23T21:16:08.205Z,6.91
2023-02-23T21:18:36.312Z,6.89
2023-02-23T21:21:10.147Z,6.91
2023-02-23T21:23:39.914Z,6.91
2023-02-23T21:26:16.467Z,6.91
2023-02-23T21:28:45.613Z,6.92
2023-02-23T21:31:14.098Z,6.90
2023-02-23T21:33:44.891Z,6.90
2023-02-23T21:36:12.736Z,6.88
2023-02-23T21:38:44.796Z,6.87
2023-02-23T21:41:15.604Z,6.85
2023-02-23T21:43:44.830Z,6.84
2023-02-23T21:46:15.924Z,6.84
2023-02-23T21:48:53.666Z,6.84
2023-02-23T21:51:20.847Z,6.83
2023-02-23T21:58:48.568Z,6.80
2023-02-23T22:01:38.396Z,6.80
2023-02-23T22:04:25.415Z,6.79
2023-02-23T22:07:12.355Z,6.79
2023-02-23T22:09:59.365Z,6.75
2023-02-23T22:12:46.643Z,6.72
2023-02-23T22:15:34.072Z,6.70
2023-02-23T22:18:21.025Z,6.68
2023-02-23T22:21:10.018Z,6.66
2023-02-23T22:23:57.177Z,6.66
2023-02-23T22:26:50.573Z,6.65
2023-02-23T22:29:38.870Z,6.62
2023-02-23T22:32:27.311Z,6.60
2023-02-23T22:35:14.321Z,6.59
2023-02-23T22:38:01.282Z,6.57
2023-02-23T22:40:48.301Z,6.57
2023-02-23T22:43:35.253Z,6.58
2023-02-23T22:46:24.118Z,6.57
2023-02-23T22:49:11.921Z,6.56
2023-02-23T22:52:03.516Z,6.53
2023-02-23T22:54:51.310Z,6.52
2023-02-23T22:57:39.897Z,6.52
2023-02-23T23:00:27.874Z,6.51
2023-02-23T23:03:14.808Z,6.51
2023-02-23T23:06:08.126Z,6.49
2023-02-23T23:08:56.527Z,6.49
2023-02-23T23:11:44.269Z,6.47
2023-02-23T23:14:32.672Z,6.48
2023-02-23T23:17:20.270Z,6.48
2023-02-23T23:20:11.879Z,6.45
2023-02-23T23:22:58.807Z,6.45
2023-02-23T23:25:47.458Z,6.43
2023-02-23T23:28:43.468Z,6.45
2023-02-23T23:31:32.652Z,6.41
2023-02-23T23:34:22.482Z,6.40
2023-02-23T23:37:09.800Z,6.39
2023-02-23T23:40:00.180Z,6.40
2023-02-23T23:42:48.101Z,6.40
2023-02-23T23:45:38.247Z,6.40
2023-02-23T23:48:25.436Z,6.38
2023-02-23T23:51:12.470Z,6.37
2023-02-23T23:54:01.308Z,6.35
2023-02-23T23:56:49.717Z,6.32
2023-02-23T23:59:41.577Z,6.32
